sensor_id;sensor_type;location;lat;lon;timestamp;temperature;humidity
6988;DHT22;3534;49.960;8.018;2023-03-31T00:00:21;13.30;99.90
6988;DHT22;3534;49.960;8.018;2023-03-31T00:02:47;13.10;99.90
6988;DHT22;3534;49.960;8.018;2023-03-31T00:05:14;12.90;99.90
6988;DHT22;3534;49.960;8.018;2023-03-31T00:07:43;12.80;99.90
6988;DHT22;3534;49.960;8.018;2023-03-31T00:10:12;12.80;99.90
6988;DHT22;3534;49.960;8.018;2023-03-31T00:12:39;12.80;99.90
6988;DHT22;3534;49.960;8.018;2023-03-31T00:15:07;12.90;99.90
6988;DHT22;3534;49.960;8.018;2023-03-31T00:17:33;13.00;99.90
6988;DHT22;3534;49.960;8.018;2023-03-31T00:20:00;13.00;99.90
6988;DHT22;3534;49.960;8.018;2023-03-31T00:22:36;13.00;99.90
6988;DHT22;3534;49.960;8.018;2023-03-31T00:25:08;13.00;99.90
6988;DHT22;3534;49.960;8.018;2023-03-31T00:27:35;13.10;99.90
6988;DHT22;3534;49.960;8.018;2023-03-31T00:30:02;13.10;99.90
6988;DHT22;3534;49.960;8.018;2023-03-31T00:32:28;13.00;99.90
6988;DHT22;3534;49.960;8.018;2023-03-31T00:34:57;13.10;99.90
6988;DHT22;3534;49.960;8.018;2023-03-31T00:37:26;13.10;99.90
6988;DHT22;3534;49.960;8.018;2023-03-31T00:39:53;13.10;99.90
6988;DHT22;3534;49.960;8.018;2023-03-31T00:42:22;13.10;99.90
6988;DHT22;3534;49.960;8.018;2023-03-31T00:45:20;13.10;99.90
6988;DHT22;3534;49.960;8.018;2023-03-31T00:47:49;13.10;99.90
6988;DHT22;3534;49.960;8.018;2023-03-31T00:50:19;13.00;99.90
6988;DHT22;3534;49.960;8.018;2023-03-31T00:52:48;13.00;99.90
6988;DHT22;3534;49.960;8.018;2023-03-31T00:55:20;12.90;99.90
6988;DHT22;3534;49.960;8.018;2023-03-31T00:57:50;12.80;99.90
6988;DHT22;3534;49.960;8.018;2023-03-31T01:00:19;12.80;99.90
6988;DHT22;3534;49.960;8.018;2023-03-31T01:02:51;12.80;99.90
6988;DHT22;3534;49.960;8.018;2023-03-31T01:05:22;12.80;99.90
6988;DHT22;3534;49.960;8.018;2023-03-31T01:07:50;12.90;99.90
6988;DHT22;3534;49.960;8.018;2023-03-31T01:10:18;12.90;99.90
6988;DHT22;3534;49.960;8.018;2023-03-31T01:12:46;12.90;99.90
6988;DHT22;3534;49.960;8.018;2023-03-31T01:15:14;12.90;99.90
6988;DHT22;3534;49.960;8.018;2023-03-31T01:17:42;13.00;99.90
6988;DHT22;3534;49.960;8.018;2023-03-31T01:20:16;13.00;99.90
6988;DHT22;3534;49.960;8.018;2023-03-31T01:29:00;13.00;99.90
6988;DHT22;3534;49.960;8.018;2023-03-31T01:32:08;13.00;99.90
6988;DHT22;3534;49.960;8.018;2023-03-31T01:34:56;13.00;99.90
6988;DHT22;3534;49.960;8.018;2023-03-31T01:38:06;13.00;99.90
6988;DHT22;3534;49.960;8.018;2023-03-31T01:41:06;13.00;99.90
6988;DHT22;3534;49.960;8.018;2023-03-31T01:43:40;13.00;99.90
6988;DHT22;3534;49.960;8.018;2023-03-31T01:46:12;13.00;99.90
6988;DHT22;3534;49.960;8.018;2023-03-31T01:48:47;13.00;99.90
6988;DHT22;3534;49.960;8.018;2023-03-31T01:51:21;12.90;99.90
6988;DHT22;3534;49.960;8.018;2023-03-31T01:53:53;12.90;99.90
6988;DHT22;3534;49.960;8.018;2023-03-31T01:56:25;12.90;99.90
6988;DHT22;3534;49.960;8.018;2023-03-31T01:58:59;12.90;99.90
6988;DHT22;3534;49.960;8.018;2023-03-31T02:01:30;12.90;99.90
6988;DHT22;3534;49.960;8.018;2023-03-31T02:04:04;12.90;99.90
6988;DHT22;3534;49.960;8.018;2023-03-31T02:06:34;12.90;99.90
6988;DHT22;3534;49.960;8.018;2023-03-31T02:09:05;12.90;99.90
6988;DHT22;3534;49.960;8.018;2023-03-31T02:11:38;12.90;99.90
6988;DHT22;3534;49.960;8.018;2023-03-31T02:14:09;12.90;99.90
6988;DHT22;3534;49.960;8.018;2023-03-31T02:16:39;12.80;99.90
6988;DHT22;3534;49.960;8.018;2023-03-31T02:19:12;12.80;99.90
6988;DHT22;3534;49.960;8.018;2023-03-31T02:21:44;12.80;99.90
6988;DHT22;3534;49.960;8.018;2023-03-31T02:24:13;12.80;99.90
6988;DHT22;3534;49.960;8.018;2023-03-31T02:26:45;12.70;99.90
6988;DHT22;3534;49.960;8.018;2023-03-31T02:29:13;12.60;99.90
6988;DHT22;3534;49.960;8.018;2023-03-31T02:31:45;12.40;99.90
6988;DHT22;3534;49.960;8.018;2023-03-31T02:34:13;12.50;99.90
6988;DHT22;3534;49.960;8.018;2023-03-31T02:36:41;12.50;99.90
6988;DHT22;3534;49.960;8.018;2023-03-31T02:39:12;12.60;99.90
6988;DHT22;3534;49.960;8.018;2023-03-31T02:41:41;12.60;99.90
6988;DHT22;3534;49.960;8.018;2023-03-31T02:44:08;12.70;99.90
6988;DHT22;3534;49.960;8.018;2023-03-31T02:46:35;12.70;99.90
6988;DHT22;3534;49.960;8.018;2023-03-31T02:49:05;12.70;99.90
6988;DHT22;3534;49.960;8.018;2023-03-31T02:51:53;12.70;99.90
6988;DHT22;3534;49.960;8.018;2023-03-31T02:57:39;12.70;99.90
6988;DHT22;3534;49.960;8.018;2023-03-31T03:00:21;12.70;99.90
6988;DHT22;3534;49.960;8.018;2023-03-31T03:03:00;12.70;99.90
6988;DHT22;3534;49.960;8.018;2023-03-31T03:05:39;12.70;99.90
6988;DHT22;3534;49.960;8.018;2023-03-31T03:08:17;12.70;99.90
6988;DHT22;3534;49.960;8.018;2023-03-31T03:10:59;12.70;99.90
6988;DHT22;3534;49.960;8.018;2023-03-31T03:13:33;12.70;99.90
6988;DHT22;3534;49.960;8.018;2023-03-31T03:16:04;12.70;99.90
6988;DHT22;3534;49.960;8.018;2023-03-31T03:18:35;12.60;99.90
6988;DHT22;3534;49.960;8.018;2023-03-31T03:21:02;12.50;99.90
6988;DHT22;3534;49.960;8.018;2023-03-31T03:23:29;12.50;99.90
6988;DHT22;3534;49.960;8.018;2023-03-31T03:25:57;12.60;99.90
6988;DHT22;3534;49.960;8.018;2023-03-31T03:28:24;12.60;99.90
6988;DHT22;3534;49.960;8.018;2023-03-31T03:30:52;12.60;99.90
6988;DHT22;3534;49.960;8.018;2023-03-31T03:33:18;12.50;99.90
6988;DHT22;3534;49.960;8.018;2023-03-31T03:35:49;12.50;99.90
6988;DHT22;3534;49.960;8.018;2023-03-31T03:38:15;12.60;99.90
6988;DHT22;3534;49.960;8.018;2023-03-31T03:40:42;12.60;99.90
6988;DHT22;3534;49.960;8.018;2023-03-31T03:43:09;12.60;99.90
6988;DHT22;3534;49.960;8.018;2023-03-31T03:45:35;12.50;99.90
6988;DHT22;3534;49.960;8.018;2023-03-31T03:48:04;12.50;99.90
6988;DHT22;3534;49.960;8.018;2023-03-31T03:50:35;12.50;99.90
6988;DHT22;3534;49.960;8.018;2023-03-31T03:53:01;12.50;99.90
6988;DHT22;3534;49.960;8.018;2023-03-31T03:55:28;12.50;99.90
6988;DHT22;3534;49.960;8.018;2023-03-31T03:57:55;12.50;99.90
6988;DHT22;3534;49.960;8.018;2023-03-31T04:00:22;12.50;99.90
6988;DHT22;3534;49.960;8.018;2023-03-31T04:02:48;12.60;99.90
6988;DHT22;3534;49.960;8.018;2023-03-31T04:05:16;12.60;99.90
6988;DHT22;3534;49.960;8.018;2023-03-31T04:07:43;12.60;99.90
6988;DHT22;3534;49.960;8.018;2023-03-31T04:10:10;12.60;99.90
6988;DHT22;3534;49.960;8.018;2023-03-31T04:12:36;12.70;99.90
6988;DHT22;3534;49.960;8.018;2023-03-31T04:15:04;12.60;99.90
6988;DHT22;3534;49.960;8.018;2023-03-31T04:17:31;12.60;99.90
6988;DHT22;3534;49.960;8.018;2023-03-31T04:19:59;12.60;99.90
6988;DHT22;3534;49.960;8.018;2023-03-31T04:22:28;12.60;99.90
6988;DHT22;3534;49.960;8.018;2023-03-31T04:25:00;12.60;99.90
6988;DHT22;3534;49.960;8.018;2023-03-31T04:27:26;12.60;99.90
6988;DHT22;3534;49.960;8.018;2023-03-31T04:29:53;12.50;99.90
6988;DHT22;3534;49.960;8.018;2023-03-31T04:32:20;12.50;99.90
6988;DHT22;3534;49.960;8.018;2023-03-31T04:34:47;12.50;99.90
6988;DHT22;3534;49.960;8.018;2023-03-31T04:37:15;12.50;99.90
6988;DHT22;3534;49.960;8.018;2023-03-31T04:39:43;12.50;99.90
6988;DHT22;3534;49.960;8.018;2023-03-31T04:42:11;12.60;99.90
6988;DHT22;3534;49.960;8.018;2023-03-31T04:44:38;12.50;99.90
6988;DHT22;3534;49.960;8.018;2023-03-31T04:47:04;12.50;99.90
6988;DHT22;3534;49.960;8.018;2023-03-31T04:49:31;12.40;99.90
6988;DHT22;3534;49.960;8.018;2023-03-31T04:51:58;12.40;99.90
6988;DHT22;3534;49.960;8.018;2023-03-31T04:54:25;12.40;99.90
6988;DHT22;3534;49.960;8.018;2023-03-31T04:56:53;12.40;99.90
6988;DHT22;3534;49.960;8.018;2023-03-31T04:59:19;12.30;99.90
6988;DHT22;3534;49.960;8.018;2023-03-31T05:01:46;12.40;99.90
6988;DHT22;3534;49.960;8.018;2023-03-31T05:04:13;12.40;99.90
6988;DHT22;3534;49.960;8.018;2023-03-31T05:06:39;12.40;99.90
6988;DHT22;3534;49.960;8.018;2023-03-31T05:09:06;12.40;99.90
6988;DHT22;3534;49.960;8.018;2023-03-31T05:11:34;12.40;99.90
6988;DHT22;3534;49.960;8.018;2023-03-31T05:14:02;12.40;99.90
6988;DHT22;3534;49.960;8.018;2023-03-31T05:16:29;12.30;99.90
6988;DHT22;3534;49.960;8.018;2023-03-31T05:18:55;12.30;99.90
6988;DHT22;3534;49.960;8.018;2023-03-31T05:21:22;12.40;99.90
6988;DHT22;3534;49.960;8.018;2023-03-31T05:23:51;12.40;99.90
6988;DHT22;3534;49.960;8.018;2023-03-31T05:26:18;12.40;99.90
6988;DHT22;3534;49.960;8.018;2023-03-31T05:28:47;12.50;99.90
6988;DHT22;3534;49.960;8.018;2023-03-31T05:31:16;12.50;99.90
6988;DHT22;3534;49.960;8.018;2023-03-31T05:33:43;12.50;99.90
6988;DHT22;3534;49.960;8.018;2023-03-31T05:36:12;12.60;99.90
6988;DHT22;3534;49.960;8.018;2023-03-31T05:38:39;12.50;99.90
6988;DHT22;3534;49.960;8.018;2023-03-31T05:41:06;12.50;99.90
6988;DHT22;3534;49.960;8.018;2023-03-31T05:43:34;12.50;99.90
6988;DHT22;3534;49.960;8.018;2023-03-31T05:46:00;12.50;99.90
6988;DHT22;3534;49.960;8.018;2023-03-31T05:48:28;12.50;99.90
6988;DHT22;3534;49.960;8.018;2023-03-31T05:50:56;12.50;99.90
6988;DHT22;3534;49.960;8.018;2023-03-31T05:53:23;12.50;99.90
6988;DHT22;3534;49.960;8.018;2023-03-31T05:55:55;12.60;99.90
6988;DHT22;3534;49.960;8.018;2023-03-31T05:58:22;12.60;99.90
6988;DHT22;3534;49.960;8.018;2023-03-31T06:00:49;12.60;99.90
6988;DHT22;3534;49.960;8.018;2023-03-31T06:03:18;12.50;99.90
6988;DHT22;3534;49.960;8.018;2023-03-31T06:05:47;12.50;99.90
6988;DHT22;3534;49.960;8.018;2023-03-31T06:08:14;12.40;99.90
6988;DHT22;3534;49.960;8.018;2023-03-31T06:10:41;12.40;99.90
6988;DHT22;3534;49.960;8.018;2023-03-31T06:13:08;12.40;99.90
6988;DHT22;3534;49.960;8.018;2023-03-31T06:15:34;12.40;99.90
6988;DHT22;3534;49.960;8.018;2023-03-31T06:18:01;12.40;99.90
6988;DHT22;3534;49.960;8.018;2023-03-31T06:20:28;12.40;99.90
6988;DHT22;3534;49.960;8.018;2023-03-31T06:22:56;12.30;99.90
6988;DHT22;3534;49.960;8.018;2023-03-31T06:25:22;12.10;99.90
6988;DHT22;3534;49.960;8.018;2023-03-31T06:27:49;12.10;99.90
6988;DHT22;3534;49.960;8.018;2023-03-31T06:30:16;12.10;99.90
6988;DHT22;3534;49.960;8.018;2023-03-31T06:32:42;12.10;99.90
6988;DHT22;3534;49.960;8.018;2023-03-31T06:35:09;12.20;99.90
6988;DHT22;3534;49.960;8.018;2023-03-31T06:37:36;12.20;99.90
6988;DHT22;3534;49.960;8.018;2023-03-31T06:40:05;12.20;99.90
6988;DHT22;3534;49.960;8.018;2023-03-31T06:42:32;12.20;99.90
6988;DHT22;3534;49.960;8.018;2023-03-31T06:44:59;12.20;99.90
6988;DHT22;3534;49.960;8.018;2023-03-31T06:47:25;12.20;99.90
6988;DHT22;3534;49.960;8.018;2023-03-31T06:49:52;12.20;99.90
6988;DHT22;3534;49.960;8.018;2023-03-31T06:52:19;12.20;99.90
6988;DHT22;3534;49.960;8.018;2023-03-31T06:54:45;12.10;99.90
6988;DHT22;3534;49.960;8.018;2023-03-31T06:57:13;11.90;99.90
6988;DHT22;3534;49.960;8.018;2023-03-31T06:59:41;11.80;99.90
6988;DHT22;3534;49.960;8.018;2023-03-31T07:02:08;11.90;99.90
6988;DHT22;3534;49.960;8.018;2023-03-31T07:04:35;11.80;99.90
6988;DHT22;3534;49.960;8.018;2023-03-31T07:07:02;11.80;99.90
6988;DHT22;3534;49.960;8.018;2023-03-31T07:09:28;11.90;99.90
6988;DHT22;3534;49.960;8.018;2023-03-31T07:11:55;12.00;99.90
6988;DHT22;3534;49.960;8.018;2023-03-31T07:14:23;12.10;99.90
6988;DHT22;3534;49.960;8.018;2023-03-31T07:16:50;12.20;99.90
6988;DHT22;3534;49.960;8.018;2023-03-31T07:19:17;12.20;99.90
6988;DHT22;3534;49.960;8.018;2023-03-31T07:21:44;12.10;99.90
6988;DHT22;3534;49.960;8.018;2023-03-31T07:24:10;12.20;99.90
6988;DHT22;3534;49.960;8.018;2023-03-31T07:26:37;12.30;99.90
6988;DHT22;3534;49.960;8.018;2023-03-31T07:29:04;12.30;99.90
6988;DHT22;3534;49.960;8.018;2023-03-31T07:31:32;12.40;99.90
6988;DHT22;3534;49.960;8.018;2023-03-31T07:34:00;12.50;99.90
6988;DHT22;3534;49.960;8.018;2023-03-31T07:36:28;12.60;99.90
6988;DHT22;3534;49.960;8.018;2023-03-31T07:38:55;12.70;99.90
6988;DHT22;3534;49.960;8.018;2023-03-31T07:41:22;12.70;99.90
6988;DHT22;3534;49.960;8.018;2023-03-31T07:43:50;12.70;99.90
6988;DHT22;3534;49.960;8.018;2023-03-31T07:46:19;12.80;99.90
6988;DHT22;3534;49.960;8.018;2023-03-31T07:48:47;12.80;99.90
6988;DHT22;3534;49.960;8.018;2023-03-31T07:51:15;12.90;99.90
6988;DHT22;3534;49.960;8.018;2023-03-31T07:53:43;12.90;99.90
6988;DHT22;3534;49.960;8.018;2023-03-31T07:56:10;13.00;99.90
6988;DHT22;3534;49.960;8.018;2023-03-31T07:58:37;13.10;99.90
6988;DHT22;3534;49.960;8.018;2023-03-31T08:01:04;13.10;99.90
6988;DHT22;3534;49.960;8.018;2023-03-31T08:03:30;13.10;99.90
6988;DHT22;3534;49.960;8.018;2023-03-31T08:06:00;13.10;99.90
6988;DHT22;3534;49.960;8.018;2023-03-31T08:08:26;13.10;99.90
6988;DHT22;3534;49.960;8.018;2023-03-31T08:10:53;13.00;99.90
6988;DHT22;3534;49.960;8.018;2023-03-31T08:13:20;13.00;99.90
6988;DHT22;3534;49.960;8.018;2023-03-31T08:15:46;13.00;99.90
6988;DHT22;3534;49.960;8.018;2023-03-31T08:18:13;13.00;99.90
6988;DHT22;3534;49.960;8.018;2023-03-31T08:20:40;13.00;99.90
6988;DHT22;3534;49.960;8.018;2023-03-31T08:23:08;12.90;99.90
6988;DHT22;3534;49.960;8.018;2023-03-31T08:25:36;12.90;99.90
6988;DHT22;3534;49.960;8.018;2023-03-31T08:28:03;12.90;99.90
6988;DHT22;3534;49.960;8.018;2023-03-31T08:30:31;12.90;99.90
6988;DHT22;3534;49.960;8.018;2023-03-31T08:33:04;12.90;99.90
6988;DHT22;3534;49.960;8.018;2023-03-31T08:35:31;12.90;99.90
6988;DHT22;3534;49.960;8.018;2023-03-31T08:37:58;12.90;99.90
6988;DHT22;3534;49.960;8.018;2023-03-31T08:40:27;12.90;99.90
6988;DHT22;3534;49.960;8.018;2023-03-31T08:42:56;13.00;99.90
6988;DHT22;3534;49.960;8.018;2023-03-31T08:45:29;13.00;99.90
6988;DHT22;3534;49.960;8.018;2023-03-31T08:48:01;13.00;99.90
6988;DHT22;3534;49.960;8.018;2023-03-31T08:50:30;13.10;99.90
6988;DHT22;3534;49.960;8.018;2023-03-31T08:53:03;13.10;99.90
6988;DHT22;3534;49.960;8.018;2023-03-31T08:55:36;13.10;99.90
6988;DHT22;3534;49.960;8.018;2023-03-31T08:58:11;13.10;99.90
6988;DHT22;3534;49.960;8.018;2023-03-31T09:00:42;13.10;99.90
6988;DHT22;3534;49.960;8.018;2023-03-31T09:03:17;13.10;99.90
6988;DHT22;3534;49.960;8.018;2023-03-31T09:05:52;13.10;99.90
6988;DHT22;3534;49.960;8.018;2023-03-31T09:08:31;13.20;99.90
6988;DHT22;3534;49.960;8.018;2023-03-31T09:11:08;13.20;99.90
6988;DHT22;3534;49.960;8.018;2023-03-31T09:14:09;13.30;99.90
6988;DHT22;3534;49.960;8.018;2023-03-31T09:16:42;13.40;99.90
6988;DHT22;3534;49.960;8.018;2023-03-31T09:19:17;13.60;99.90
6988;DHT22;3534;49.960;8.018;2023-03-31T09:21:48;13.70;99.90
6988;DHT22;3534;49.960;8.018;2023-03-31T09:24:19;13.80;99.90
6988;DHT22;3534;49.960;8.018;2023-03-31T09:26:51;13.90;99.90
6988;DHT22;3534;49.960;8.018;2023-03-31T09:29:21;14.00;99.90
6988;DHT22;3534;49.960;8.018;2023-03-31T09:31:49;14.00;99.90
6988;DHT22;3534;49.960;8.018;2023-03-31T09:34:22;14.00;99.90
6988;DHT22;3534;49.960;8.018;2023-03-31T09:36:49;13.90;99.90
6988;DHT22;3534;49.960;8.018;2023-03-31T09:39:16;13.90;99.90
6988;DHT22;3534;49.960;8.018;2023-03-31T09:41:44;13.90;99.90
6988;DHT22;3534;49.960;8.018;2023-03-31T09:44:25;13.80;99.90
6988;DHT22;3534;49.960;8.018;2023-03-31T09:46:53;13.80;99.90
6988;DHT22;3534;49.960;8.018;2023-03-31T09:49:22;13.70;99.90
6988;DHT22;3534;49.960;8.018;2023-03-31T09:52:00;13.70;99.90
6988;DHT22;3534;49.960;8.018;2023-03-31T09:54:33;13.70;99.90
6988;DHT22;3534;49.960;8.018;2023-03-31T09:57:02;13.70;99.90
6988;DHT22;3534;49.960;8.018;2023-03-31T09:59:33;13.40;99.90
6988;DHT22;3534;49.960;8.018;2023-03-31T10:02:02;12.90;99.90
6988;DHT22;3534;49.960;8.018;2023-03-31T10:04:32;12.60;99.90
6988;DHT22;3534;49.960;8.018;2023-03-31T10:07:00;12.20;99.90
6988;DHT22;3534;49.960;8.018;2023-03-31T10:09:31;12.00;99.90
6988;DHT22;3534;49.960;8.018;2023-03-31T10:12:01;11.70;99.90
6988;DHT22;3534;49.960;8.018;2023-03-31T10:14:39;11.60;99.90
6988;DHT22;3534;49.960;8.018;2023-03-31T10:17:06;11.50;99.90
6988;DHT22;3534;49.960;8.018;2023-03-31T10:19:34;11.50;99.90
6988;DHT22;3534;49.960;8.018;2023-03-31T10:22:03;11.40;99.90
6988;DHT22;3534;49.960;8.018;2023-03-31T10:24:38;11.40;99.90
6988;DHT22;3534;49.960;8.018;2023-03-31T10:27:07;11.40;99.90
6988;DHT22;3534;49.960;8.018;2023-03-31T10:29:41;11.50;99.90
6988;DHT22;3534;49.960;8.018;2023-03-31T10:32:12;11.40;99.90
6988;DHT22;3534;49.960;8.018;2023-03-31T10:34:41;11.50;99.90
6988;DHT22;3534;49.960;8.018;2023-03-31T10:37:12;11.50;99.90
6988;DHT22;3534;49.960;8.018;2023-03-31T10:39:40;11.60;99.90
6988;DHT22;3534;49.960;8.018;2023-03-31T10:42:09;11.60;99.90
6988;DHT22;3534;49.960;8.018;2023-03-31T10:44:37;11.70;99.90
6988;DHT22;3534;49.960;8.018;2023-03-31T10:47:17;11.70;99.90
6988;DHT22;3534;49.960;8.018;2023-03-31T10:49:47;11.80;99.90
6988;DHT22;3534;49.960;8.018;2023-03-31T10:52:17;11.80;99.90
6988;DHT22;3534;49.960;8.018;2023-03-31T10:54:46;11.90;99.90
6988;DHT22;3534;49.960;8.018;2023-03-31T10:57:14;12.00;99.90
6988;DHT22;3534;49.960;8.018;2023-03-31T10:59:49;12.10;99.90
6988;DHT22;3534;49.960;8.018;2023-03-31T11:05:25;12.50;99.90
6988;DHT22;3534;49.960;8.018;2023-03-31T11:08:04;12.60;99.90
6988;DHT22;3534;49.960;8.018;2023-03-31T11:10:42;12.80;99.90
6988;DHT22;3534;49.960;8.018;2023-03-31T11:13:20;13.00;99.90
6988;DHT22;3534;49.960;8.018;2023-03-31T11:15:55;13.20;99.90
6988;DHT22;3534;49.960;8.018;2023-03-31T11:18:35;13.30;99.90
6988;DHT22;3534;49.960;8.018;2023-03-31T11:21:16;13.50;99.90
6988;DHT22;3534;49.960;8.018;2023-03-31T11:23:51;13.50;99.90
6988;DHT22;3534;49.960;8.018;2023-03-31T11:26:26;13.50;99.90
6988;DHT22;3534;49.960;8.018;2023-03-31T11:29:04;13.50;99.90
6988;DHT22;3534;49.960;8.018;2023-03-31T11:31:41;13.50;99.90
6988;DHT22;3534;49.960;8.018;2023-03-31T11:34:33;13.50;99.90
6988;DHT22;3534;49.960;8.018;2023-03-31T11:37:22;13.40;99.90
6988;DHT22;3534;49.960;8.018;2023-03-31T11:40:08;13.40;99.90
6988;DHT22;3534;49.960;8.018;2023-03-31T11:42:40;13.40;99.90
6988;DHT22;3534;49.960;8.018;2023-03-31T11:45:14;13.50;99.90
6988;DHT22;3534;49.960;8.018;2023-03-31T11:47:44;13.60;99.90
6988;DHT22;3534;49.960;8.018;2023-03-31T11:50:15;13.70;99.90
6988;DHT22;3534;49.960;8.018;2023-03-31T11:52:51;13.70;99.90
6988;DHT22;3534;49.960;8.018;2023-03-31T11:55:21;13.80;99.90
6988;DHT22;3534;49.960;8.018;2023-03-31T11:57:58;13.80;99.90
6988;DHT22;3534;49.960;8.018;2023-03-31T12:00:28;13.80;99.90
6988;DHT22;3534;49.960;8.018;2023-03-31T12:03:00;13.40;99.90
6988;DHT22;3534;49.960;8.018;2023-03-31T12:05:30;12.90;99.90
6988;DHT22;3534;49.960;8.018;2023-03-31T12:08:03;12.70;99.90
6988;DHT22;3534;49.960;8.018;2023-03-31T12:10:34;12.80;99.90
6988;DHT22;3534;49.960;8.018;2023-03-31T12:13:08;12.90;99.90
6988;DHT22;3534;49.960;8.018;2023-03-31T12:15:43;13.20;99.90
6988;DHT22;3534;49.960;8.018;2023-03-31T12:18:14;13.50;99.90
6988;DHT22;3534;49.960;8.018;2023-03-31T12:20:48;13.90;99.90
6988;DHT22;3534;49.960;8.018;2023-03-31T12:23:20;14.30;99.90
6988;DHT22;3534;49.960;8.018;2023-03-31T12:25:51;14.40;99.90
6988;DHT22;3534;49.960;8.018;2023-03-31T12:28:20;14.50;99.90
6988;DHT22;3534;49.960;8.018;2023-03-31T12:30:48;14.60;99.90
6988;DHT22;3534;49.960;8.018;2023-03-31T12:33:19;14.90;99.90
6988;DHT22;3534;49.960;8.018;2023-03-31T12:36:00;15.10;99.90
6988;DHT22;3534;49.960;8.018;2023-03-31T12:38:40;15.30;99.90
6988;DHT22;3534;49.960;8.018;2023-03-31T12:41:16;15.40;99.90
6988;DHT22;3534;49.960;8.018;2023-03-31T12:47:07;15.70;99.90
6988;DHT22;3534;49.960;8.018;2023-03-31T12:49:58;15.80;99.90
6988;DHT22;3534;49.960;8.018;2023-03-31T12:52:34;15.90;99.90
6988;DHT22;3534;49.960;8.018;2023-03-31T12:55:24;15.90;99.90
6988;DHT22;3534;49.960;8.018;2023-03-31T13:01:05;15.60;99.90
6988;DHT22;3534;49.960;8.018;2023-03-31T13:04:08;15.50;99.90
6988;DHT22;3534;49.960;8.018;2023-03-31T13:06:53;15.30;99.90
6988;DHT22;3534;49.960;8.018;2023-03-31T13:09:43;15.00;99.90
6988;DHT22;3534;49.960;8.018;2023-03-31T13:12:15;14.80;99.90
6988;DHT22;3534;49.960;8.018;2023-03-31T13:14:45;14.70;99.90
6988;DHT22;3534;49.960;8.018;2023-03-31T13:17:21;14.60;99.90
6988;DHT22;3534;49.960;8.018;2023-03-31T13:19:48;14.50;99.90
6988;DHT22;3534;49.960;8.018;2023-03-31T13:22:33;14.60;99.90
6988;DHT22;3534;49.960;8.018;2023-03-31T13:28:36;14.80;99.90
6988;DHT22;3534;49.960;8.018;2023-03-31T13:31:05;15.10;99.90
6988;DHT22;3534;49.960;8.018;2023-03-31T13:33:46;15.40;99.90
6988;DHT22;3534;49.960;8.018;2023-03-31T13:39:25;15.80;99.90
6988;DHT22;3534;49.960;8.018;2023-03-31T13:42:00;16.00;99.90
6988;DHT22;3534;49.960;8.018;2023-03-31T13:44:55;16.30;99.90
6988;DHT22;3534;49.960;8.018;2023-03-31T13:50:37;16.70;99.90
6988;DHT22;3534;49.960;8.018;2023-03-31T13:53:16;17.10;99.90
6988;DHT22;3534;49.960;8.018;2023-03-31T13:56:03;17.30;99.90
6988;DHT22;3534;49.960;8.018;2023-03-31T13:58:56;17.50;99.90
6988;DHT22;3534;49.960;8.018;2023-03-31T14:01:54;17.80;99.90
6988;DHT22;3534;49.960;8.018;2023-03-31T14:07:37;18.40;99.90
6988;DHT22;3534;49.960;8.018;2023-03-31T14:10:21;18.70;99.90
6988;DHT22;3534;49.960;8.018;2023-03-31T14:12:48;18.90;99.90
6988;DHT22;3534;49.960;8.018;2023-03-31T14:15:18;18.80;99.90
6988;DHT22;3534;49.960;8.018;2023-03-31T14:17:47;18.60;99.90
6988;DHT22;3534;49.960;8.018;2023-03-31T14:20:27;18.50;99.90
6988;DHT22;3534;49.960;8.018;2023-03-31T14:23:07;18.40;99.90
6988;DHT22;3534;49.960;8.018;2023-03-31T14:25:43;18.10;99.90
6988;DHT22;3534;49.960;8.018;2023-03-31T14:28:30;17.80;99.90
6988;DHT22;3534;49.960;8.018;2023-03-31T14:31:08;17.40;99.90
6988;DHT22;3534;49.960;8.018;2023-03-31T14:33:44;17.00;99.90
6988;DHT22;3534;49.960;8.018;2023-03-31T14:36:17;16.30;99.90
6988;DHT22;3534;49.960;8.018;2023-03-31T14:38:46;15.20;99.90
6988;DHT22;3534;49.960;8.018;2023-03-31T14:41:16;14.40;99.90
6988;DHT22;3534;49.960;8.018;2023-03-31T14:43:46;14.00;99.90
6988;DHT22;3534;49.960;8.018;2023-03-31T14:46:18;13.70;99.90
6988;DHT22;3534;49.960;8.018;2023-03-31T14:48:49;13.60;99.90
6988;DHT22;3534;49.960;8.018;2023-03-31T14:51:17;13.60;99.90
6988;DHT22;3534;49.960;8.018;2023-03-31T14:53:44;13.50;99.90
6988;DHT22;3534;49.960;8.018;2023-03-31T14:56:12;13.50;99.90
6988;DHT22;3534;49.960;8.018;2023-03-31T14:58:42;13.50;99.90
6988;DHT22;3534;49.960;8.018;2023-03-31T15:01:14;13.40;99.90
6988;DHT22;3534;49.960;8.018;2023-03-31T15:03:42;13.30;99.90
6988;DHT22;3534;49.960;8.018;2023-03-31T15:06:11;13.20;99.90
6988;DHT22;3534;49.960;8.018;2023-03-31T15:08:38;13.20;99.90
6988;DHT22;3534;49.960;8.018;2023-03-31T15:11:07;13.30;99.90
6988;DHT22;3534;49.960;8.018;2023-03-31T15:13:40;13.40;99.90
6988;DHT22;3534;49.960;8.018;2023-03-31T15:16:27;13.50;99.90
6988;DHT22;3534;49.960;8.018;2023-03-31T15:18:56;13.60;99.90
6988;DHT22;3534;49.960;8.018;2023-03-31T15:21:26;13.60;99.90
6988;DHT22;3534;49.960;8.018;2023-03-31T15:23:55;13.60;99.90
6988;DHT22;3534;49.960;8.018;2023-03-31T15:26:24;13.60;99.90
6988;DHT22;3534;49.960;8.018;2023-03-31T15:28:54;13.60;99.90
6988;DHT22;3534;49.960;8.018;2023-03-31T15:31:22;13.60;99.90
6988;DHT22;3534;49.960;8.018;2023-03-31T15:33:51;13.60;99.90
6988;DHT22;3534;49.960;8.018;2023-03-31T15:36:19;13.50;99.90
6988;DHT22;3534;49.960;8.018;2023-03-31T15:38:54;13.50;99.90
6988;DHT22;3534;49.960;8.018;2023-03-31T15:41:21;13.50;99.90
6988;DHT22;3534;49.960;8.018;2023-03-31T15:44:02;13.40;99.90
6988;DHT22;3534;49.960;8.018;2023-03-31T15:46:49;13.40;99.90
6988;DHT22;3534;49.960;8.018;2023-03-31T15:49:21;13.40;99.90
6988;DHT22;3534;49.960;8.018;2023-03-31T15:51:49;13.30;99.90
6988;DHT22;3534;49.960;8.018;2023-03-31T15:54:34;13.30;99.90
6988;DHT22;3534;49.960;8.018;2023-03-31T15:57:03;13.20;99.90
6988;DHT22;3534;49.960;8.018;2023-03-31T15:59:31;13.10;99.90
6988;DHT22;3534;49.960;8.018;2023-03-31T16:02:10;13.00;99.90
6988;DHT22;3534;49.960;8.018;2023-03-31T16:04:38;12.90;99.90
6988;DHT22;3534;49.960;8.018;2023-03-31T16:07:08;12.80;99.90
6988;DHT22;3534;49.960;8.018;2023-03-31T16:09:43;12.80;99.90
6988;DHT22;3534;49.960;8.018;2023-03-31T16:12:17;12.80;99.90
6988;DHT22;3534;49.960;8.018;2023-03-31T16:14:49;12.70;99.90
6988;DHT22;3534;49.960;8.018;2023-03-31T16:17:22;12.70;99.90
6988;DHT22;3534;49.960;8.018;2023-03-31T16:19:52;12.70;99.90
6988;DHT22;3534;49.960;8.018;2023-03-31T16:22:23;12.70;99.90
6988;DHT22;3534;49.960;8.018;2023-03-31T16:24:53;12.70;99.90
6988;DHT22;3534;49.960;8.018;2023-03-31T16:27:21;12.70;99.90
6988;DHT22;3534;49.960;8.018;2023-03-31T16:29:48;12.70;99.90
6988;DHT22;3534;49.960;8.018;2023-03-31T16:32:16;12.70;99.90
6988;DHT22;3534;49.960;8.018;2023-03-31T16:34:55;12.70;99.90
6988;DHT22;3534;49.960;8.018;2023-03-31T16:37:22;12.80;99.90
6988;DHT22;3534;49.960;8.018;2023-03-31T16:39:49;12.80;99.90
6988;DHT22;3534;49.960;8.018;2023-03-31T16:42:17;12.80;99.90
6988;DHT22;3534;49.960;8.018;2023-03-31T16:44:45;12.80;99.90
6988;DHT22;3534;49.960;8.018;2023-03-31T16:47:11;12.80;99.90
6988;DHT22;3534;49.960;8.018;2023-03-31T16:49:38;12.90;99.90
6988;DHT22;3534;49.960;8.018;2023-03-31T16:52:05;12.90;99.90
6988;DHT22;3534;49.960;8.018;2023-03-31T16:54:33;12.80;99.90
6988;DHT22;3534;49.960;8.018;2023-03-31T16:57:00;12.80;99.90
6988;DHT22;3534;49.960;8.018;2023-03-31T16:59:28;12.80;99.90